createdAt,value
2024-05-09T00:00:18.490Z,9.80
2024-05-09T00:02:52.479Z,9.60
2024-05-09T00:05:18.916Z,8.75
2024-05-09T00:07:45.382Z,8.82
2024-05-09T00:10:18.324Z,8.13
2024-05-09T00:12:51.953Z,8.27
2024-05-09T00:15:18.303Z,8.30
2024-05-09T00:17:44.918Z,8.65
2024-05-09T00:20:17.711Z,8.10
2024-05-09T00:22:50.313Z,7.57
2024-05-09T00:25:32.873Z,7.90
2024-05-09T00:27:59.264Z,8.52
2024-05-09T00:30:33.308Z,7.70
2024-05-09T00:33:02.455Z,6.70
2024-05-09T00:35:29.001Z,7.32
2024-05-09T00:37:55.478Z,7.15
2024-05-09T00:40:30.861Z,5.93
2024-05-09T00:43:04.941Z,6.05
2024-05-09T00:45:31.253Z,5.80
2024-05-09T00:48:00.386Z,5.13
2024-05-09T00:50:35.337Z,5.43
2024-05-09T00:53:03.505Z,5.20
2024-05-09T00:55:30.417Z,4.55
2024-05-09T00:57:56.717Z,4.10
2024-05-09T01:00:31.408Z,3.75
2024-05-09T01:03:04.694Z,4.07
2024-05-09T01:05:32.374Z,5.00
2024-05-09T01:07:58.928Z,3.90
2024-05-09T01:10:32.294Z,4.90
2024-05-09T01:13:01.263Z,4.20
2024-05-09T01:15:27.596Z,3.25
2024-05-09T01:17:55.973Z,3.53
2024-05-09T01:20:31.823Z,3.30
2024-05-09T01:23:07.661Z,3.92
2024-05-09T01:25:34.165Z,3.58
2024-05-09T01:28:00.456Z,2.70
2024-05-09T01:30:33.775Z,2.80
2024-05-09T01:33:02.680Z,3.00
2024-05-09T01:35:29.335Z,2.95
2024-05-09T01:37:55.916Z,3.20
2024-05-09T01:40:29.105Z,3.30
2024-05-09T01:43:02.879Z,3.10
2024-05-09T01:45:29.178Z,3.60
2024-05-09T01:47:55.666Z,3.30
2024-05-09T01:50:33.276Z,3.05
2024-05-09T01:53:04.222Z,3.47
2024-05-09T01:55:30.546Z,3.20
2024-05-09T01:57:56.860Z,3.17
2024-05-09T02:00:36.638Z,2.83
2024-05-09T02:03:09.687Z,3.30
2024-05-09T02:05:36.634Z,3.20
2024-05-09T02:08:03.271Z,3.00
2024-05-09T02:10:32.724Z,3.20
2024-05-09T02:12:59.745Z,3.15
2024-05-09T02:15:26.050Z,3.10
2024-05-09T02:17:52.560Z,3.33
2024-05-09T02:20:27.432Z,2.97
2024-05-09T02:23:01.609Z,3.38
2024-05-09T02:25:27.983Z,2.88
2024-05-09T02:27:54.277Z,2.97
2024-05-09T02:30:29.917Z,3.13
2024-05-09T02:33:04.800Z,3.00
2024-05-09T02:35:31.454Z,3.13
2024-05-09T02:37:58.151Z,2.80
2024-05-09T02:40:33.246Z,2.85
2024-05-09T02:43:03.421Z,2.70
2024-05-09T02:45:29.750Z,3.15
2024-05-09T02:47:56.775Z,2.85
2024-05-09T02:50:29.590Z,2.90
2024-05-09T02:53:03.033Z,3.50
2024-05-09T02:55:29.485Z,3.35
2024-05-09T02:57:55.782Z,2.80
2024-05-09T03:00:26.844Z,3.00
2024-05-09T03:03:01.529Z,2.90
2024-05-09T03:05:28.048Z,3.20
2024-05-09T03:07:54.360Z,2.72
2024-05-09T03:10:25.601Z,2.80
2024-05-09T03:12:54.994Z,2.55
2024-05-09T03:15:22.806Z,3.10
2024-05-09T03:17:49.718Z,3.03
2024-05-09T03:20:23.324Z,3.22
2024-05-09T03:22:52.693Z,2.88
2024-05-09T03:25:20.407Z,2.80
2024-05-09T03:27:46.689Z,2.88
2024-05-09T03:30:25.607Z,2.85
2024-05-09T03:32:57.292Z,3.25
2024-05-09T03:35:23.866Z,3.22
2024-05-09T03:37:50.290Z,3.00
2024-05-09T03:40:23.367Z,3.03
2024-05-09T03:42:52.489Z,2.75
2024-05-09T03:45:18.771Z,2.92
2024-05-09T03:47:45.355Z,2.83
2024-05-09T03:50:18.358Z,2.80
2024-05-09T03:52:52.107Z,2.80
2024-05-09T03:55:18.406Z,3.03
2024-05-09T03:57:44.728Z,2.70
2024-05-09T04:00:17.851Z,2.92
2024-05-09T04:02:49.418Z,2.90
2024-05-09T04:05:15.947Z,3.22
2024-05-09T04:07:45.729Z,3.00
2024-05-09T04:10:20.977Z,3.20
2024-05-09T04:12:54.578Z,3.10
2024-05-09T04:15:20.862Z,3.25
2024-05-09T04:17:51.589Z,3.00
2024-05-09T04:20:29.184Z,2.90
2024-05-09T04:23:03.404Z,2.90
2024-05-09T04:25:30.112Z,3.00
2024-05-09T04:27:56.517Z,2.88
2024-05-09T04:30:34.273Z,3.05
2024-05-09T04:33:05.232Z,3.20
2024-05-09T04:35:31.870Z,2.72
2024-05-09T04:37:58.373Z,4.03
2024-05-09T04:40:31.603Z,2.88
2024-05-09T04:43:02.312Z,2.78
2024-05-09T04:45:28.686Z,3.05
2024-05-09T04:47:55.482Z,3.05
2024-05-09T04:50:30.015Z,3.20
2024-05-09T04:53:02.542Z,2.70
2024-05-09T04:55:28.862Z,2.78
2024-05-09T04:57:55.138Z,2.83
2024-05-09T05:00:31.698Z,3.20
2024-05-09T05:03:05.970Z,2.75
2024-05-09T05:05:32.683Z,3.50
2024-05-09T05:07:59.118Z,3.00
2024-05-09T05:10:29.720Z,2.92
2024-05-09T05:13:18.510Z,3.20
2024-05-09T05:15:49.752Z,3.20
2024-05-09T05:18:16.876Z,3.22
2024-05-09T05:20:43.952Z,3.17
2024-05-09T05:23:15.519Z,3.30
2024-05-09T05:25:42.956Z,3.20
2024-05-09T05:28:09.312Z,3.20
2024-05-09T05:30:37.938Z,3.10
2024-05-09T05:33:10.426Z,3.42
2024-05-09T05:35:37.322Z,2.92
2024-05-09T05:38:04.626Z,3.30
2024-05-09T05:40:37.238Z,3.30
2024-05-09T05:43:06.381Z,3.58
2024-05-09T05:45:32.719Z,3.53
2024-05-09T05:48:00.311Z,3.58
2024-05-09T05:50:32.848Z,3.60
2024-05-09T05:53:02.731Z,3.55
2024-05-09T05:55:29.058Z,3.58
2024-05-09T05:57:55.332Z,3.83
2024-05-09T06:00:29.711Z,3.15
2024-05-09T06:03:03.616Z,3.40
2024-05-09T06:05:30.105Z,3.45
2024-05-09T06:07:56.516Z,3.80
2024-05-09T06:10:29.598Z,2.90
2024-05-09T06:13:01.290Z,3.17
2024-05-09T06:15:27.603Z,3.45
2024-05-09T06:17:54.132Z,3.40
2024-05-09T06:20:31.254Z,3.80
2024-05-09T06:23:03.095Z,3.40
2024-05-09T06:25:29.570Z,3.30
2024-05-09T06:27:55.910Z,3.10
2024-05-09T06:30:29.934Z,3.42
2024-05-09T06:33:03.559Z,3.17
2024-05-09T06:35:30.231Z,3.28
2024-05-09T06:37:56.664Z,3.40
2024-05-09T06:40:25.940Z,3.22
2024-05-09T06:43:00.493Z,3.15
2024-05-09T06:45:26.788Z,3.70
2024-05-09T06:47:53.363Z,3.40
2024-05-09T06:50:24.030Z,3.42
2024-05-09T06:52:54.575Z,3.30
2024-05-09T06:55:21.234Z,3.35
2024-05-09T06:57:47.583Z,3.00
2024-05-09T07:00:22.676Z,3.63
2024-05-09T07:02:56.727Z,2.80
2024-05-09T07:05:23.270Z,2.97
2024-05-09T07:07:49.673Z,3.30
2024-05-09T07:10:22.045Z,2.83
2024-05-09T07:12:55.052Z,2.72
2024-05-09T07:15:21.360Z,2.90
2024-05-09T07:17:48.734Z,3.28
2024-05-09T07:20:23.501Z,3.30
2024-05-09T07:22:58.336Z,3.20
2024-05-09T07:25:24.671Z,3.38
2024-05-09T07:27:51.016Z,3.40
2024-05-09T07:30:26.935Z,2.70
2024-05-09T07:32:57.383Z,3.15
2024-05-09T07:35:23.843Z,3.05
2024-05-09T07:37:50.353Z,2.95
2024-05-09T07:40:24.977Z,3.22
2024-05-09T07:42:59.036Z,3.33
2024-05-09T07:45:43.248Z,2.75
2024-05-09T07:49:44.861Z,2.80
2024-05-09T07:53:07.533Z,2.95
2024-05-09T07:53:50.652Z,2.83
2024-05-09T07:56:22.298Z,2.72
2024-05-09T07:58:51.546Z,2.35
2024-05-09T08:01:18.325Z,2.58
2024-05-09T08:03:45.655Z,2.55
2024-05-09T08:06:12.189Z,2.97
2024-05-09T08:08:38.497Z,2.60
2024-05-09T08:11:06.913Z,3.00
2024-05-09T08:13:33.280Z,2.58
2024-05-09T08:15:59.683Z,2.22
2024-05-09T08:18:26.230Z,2.13
2024-05-09T08:20:52.649Z,2.08
2024-05-09T08:23:19.133Z,1.95
2024-05-09T08:25:45.467Z,2.10
2024-05-09T08:28:12.959Z,2.30
2024-05-09T08:30:39.528Z,2.13
2024-05-09T08:33:07.196Z,2.17
2024-05-09T08:35:34.870Z,2.58
2024-05-09T08:38:03.421Z,2.38
2024-05-09T08:40:35.575Z,2.30
2024-05-09T08:43:09.833Z,2.30
2024-05-09T08:45:39.140Z,2.38
2024-05-09T08:48:09.050Z,2.45
2024-05-09T08:50:39.431Z,2.78
2024-05-09T08:53:06.853Z,2.63
2024-05-09T08:55:33.188Z,2.38
2024-05-09T08:58:01.488Z,2.90
2024-05-09T09:00:36.058Z,2.90
2024-05-09T09:03:05.993Z,2.63
2024-05-09T09:05:37.277Z,2.88
2024-05-09T09:08:07.410Z,2.80
2024-05-09T09:10:34.153Z,2.88
2024-05-09T09:13:05.165Z,3.25
2024-05-09T09:15:32.099Z,3.30
2024-05-09T09:17:59.960Z,3.60
2024-05-09T09:20:35.321Z,3.25
2024-05-09T09:23:03.078Z,2.83
2024-05-09T09:25:29.378Z,3.50
2024-05-09T09:27:55.825Z,3.05
2024-05-09T09:30:34.431Z,3.15
2024-05-09T09:33:04.101Z,3.28
2024-05-09T09:35:30.543Z,8.23
2024-05-09T09:38:00.948Z,4.35
2024-05-09T09:40:32.855Z,3.50
2024-05-09T09:43:02.183Z,4.97
2024-05-09T09:45:34.040Z,22.83
2024-05-09T09:48:01.493Z,3.30
2024-05-09T09:50:34.217Z,3.20
2024-05-09T09:53:01.651Z,3.53
2024-05-09T09:55:28.846Z,3.15
2024-05-09T09:57:56.995Z,3.30
2024-05-09T10:00:29.981Z,3.25
2024-05-09T10:02:59.101Z,3.28
2024-05-09T10:05:25.938Z,3.40
2024-05-09T10:07:53.428Z,3.25
2024-05-09T10:10:32.201Z,2.90
2024-05-09T10:13:01.041Z,3.00
2024-05-09T10:15:27.822Z,2.50
2024-05-09T10:17:54.315Z,2.90
2024-05-09T10:20:24.746Z,3.13
2024-05-09T10:22:54.161Z,3.13
2024-05-09T10:25:20.670Z,3.47
2024-05-09T10:27:55.775Z,3.00
2024-05-09T10:30:34.000Z,2.78
2024-05-09T10:33:02.687Z,2.97
2024-05-09T10:35:32.561Z,3.25
2024-05-09T10:38:06.583Z,2.88
2024-05-09T10:40:32.936Z,2.72
2024-05-09T10:43:03.327Z,3.53
2024-05-09T10:45:32.161Z,3.17
2024-05-09T10:47:58.655Z,3.17
2024-05-09T10:50:29.122Z,2.47
2024-05-09T10:53:00.166Z,2.60
2024-05-09T10:55:26.603Z,2.85
2024-05-09T10:57:53.085Z,2.90
2024-05-09T11:00:27.474Z,3.38
2024-05-09T11:02:59.629Z,3.03
2024-05-09T11:05:26.416Z,3.10
2024-05-09T11:07:52.871Z,2.92
2024-05-09T11:10:27.303Z,3.05
2024-05-09T11:12:58.148Z,2.90
2024-05-09T11:15:25.958Z,2.42
2024-05-09T11:17:52.384Z,2.35
2024-05-09T11:20:26.456Z,3.20
2024-05-09T11:22:55.762Z,3.00
2024-05-09T11:25:22.144Z,2.75
2024-05-09T11:27:48.525Z,2.90
2024-05-09T11:30:29.572Z,2.60
2024-05-09T11:32:59.518Z,2.20
2024-05-09T11:35:26.736Z,3.08
2024-05-09T11:37:53.061Z,2.75
2024-05-09T11:40:25.342Z,2.72
2024-05-09T11:42:54.970Z,2.58
2024-05-09T11:45:21.988Z,2.58
2024-05-09T11:47:48.753Z,3.35
2024-05-09T11:50:22.592Z,2.75
2024-05-09T11:52:55.796Z,2.78
2024-05-09T11:55:26.775Z,2.80
2024-05-09T11:57:54.181Z,2.50
2024-05-09T12:00:29.182Z,2.70
2024-05-09T12:03:04.946Z,3.00
2024-05-09T12:05:32.029Z,3.17
2024-05-09T12:07:58.512Z,2.80
2024-05-09T12:10:32.562Z,2.60
2024-05-09T12:13:01.627Z,3.05
2024-05-09T12:15:28.052Z,3.10
2024-05-09T12:17:55.863Z,3.17
2024-05-09T12:20:28.884Z,3.20
2024-05-09T12:23:02.249Z,3.45
2024-05-09T12:25:28.558Z,3.05
2024-05-09T12:27:55.005Z,3.30
2024-05-09T12:30:32.281Z,3.80
2024-05-09T12:33:03.678Z,4.30
2024-05-09T12:35:30.054Z,4.03
2024-05-09T12:37:56.518Z,4.50
2024-05-09T12:40:31.500Z,4.72
2024-05-09T12:43:02.596Z,4.93
2024-05-09T12:45:28.955Z,4.78
2024-05-09T12:47:55.527Z,5.20
2024-05-09T12:50:28.813Z,4.43
2024-05-09T12:52:58.077Z,3.72
2024-05-09T12:55:24.661Z,4.82
2024-05-09T12:57:50.991Z,3.28
2024-05-09T13:00:23.949Z,3.30
2024-05-09T13:02:57.420Z,4.32
2024-05-09T13:05:24.384Z,3.00
2024-05-09T13:07:51.064Z,3.13
2024-05-09T13:10:25.539Z,3.30
2024-05-09T13:12:57.874Z,3.30
2024-05-09T13:15:24.350Z,2.70
2024-05-09T13:17:50.665Z,2.90
2024-05-09T13:20:25.742Z,3.22
2024-05-09T13:22:55.886Z,3.03
2024-05-09T13:25:24.018Z,2.80
2024-05-09T13:27:54.138Z,2.50
2024-05-09T13:30:26.396Z,2.40
2024-05-09T13:33:01.051Z,3.20
2024-05-09T13:35:27.582Z,2.88
2024-05-09T13:37:53.913Z,2.85
2024-05-09T13:40:29.831Z,2.72
2024-05-09T13:43:00.444Z,3.08
2024-05-09T13:45:26.850Z,3.20
2024-05-09T13:47:54.676Z,3.72
2024-05-09T13:50:30.550Z,3.50
2024-05-09T13:53:00.421Z,3.10
2024-05-09T13:55:26.878Z,5.85
2024-05-09T13:57:53.404Z,3.13
2024-05-09T14:00:31.837Z,2.88
2024-05-09T14:03:06.538Z,3.92
2024-05-09T14:05:33.274Z,3.22
2024-05-09T14:07:59.995Z,8.60
2024-05-09T14:10:30.957Z,4.30
2024-05-09T14:12:58.355Z,7.33
2024-05-09T14:15:24.668Z,3.15
2024-05-09T14:17:51.018Z,2.95
2024-05-09T14:20:27.998Z,3.17
2024-05-09T14:22:57.608Z,3.00
2024-05-09T14:25:26.579Z,3.38
2024-05-09T14:27:53.093Z,3.45
2024-05-09T14:30:26.473Z,3.17
2024-05-09T14:33:00.688Z,4.40
2024-05-09T14:35:27.094Z,3.45
2024-05-09T14:37:53.772Z,3.90
2024-05-09T14:42:49.368Z,4.30
2024-05-09T14:45:15.739Z,4.50
2024-05-09T14:47:42.453Z,3.33
2024-05-09T14:50:13.785Z,3.58
2024-05-09T14:52:43.252Z,3.15
2024-05-09T14:55:12.163Z,2.90
2024-05-09T14:57:38.706Z,3.08
2024-05-09T15:00:09.002Z,3.15
2024-05-09T15:02:38.776Z,3.40
2024-05-09T15:05:07.013Z,3.00
2024-05-09T15:07:34.539Z,3.05
2024-05-09T15:10:00.962Z,3.00
2024-05-09T15:12:27.283Z,2.67
2024-05-09T15:14:53.591Z,2.90
2024-05-09T15:17:19.949Z,2.92
2024-05-09T15:19:46.709Z,2.38
2024-05-09T15:22:16.475Z,2.90
2024-05-09T15:24:45.254Z,3.40
2024-05-09T15:27:12.121Z,3.38
2024-05-09T15:29:38.552Z,3.08
2024-05-09T15:32:05.158Z,3.35
2024-05-09T15:34:31.671Z,4.03
2024-05-09T15:36:59.035Z,4.63
2024-05-09T15:39:25.497Z,4.15
2024-05-09T15:41:58.640Z,4.05
2024-05-09T15:44:26.323Z,4.30
2024-05-09T15:46:56.387Z,3.83
2024-05-09T15:49:22.982Z,3.88
2024-05-09T15:51:49.460Z,3.80
2024-05-09T15:54:15.843Z,3.80
2024-05-09T15:56:47.213Z,4.03
2024-05-09T15:59:13.979Z,3.30
2024-05-09T16:01:40.351Z,3.80
2024-05-09T16:04:06.965Z,4.57
2024-05-09T16:06:34.191Z,4.00
2024-05-09T16:09:00.613Z,3.80
2024-05-09T16:11:26.932Z,4.10
2024-05-09T16:13:53.268Z,5.10
2024-05-09T16:16:19.752Z,6.15
2024-05-09T16:18:46.340Z,7.28
2024-05-09T16:21:12.674Z,10.55
2024-05-09T16:23:40.537Z,22.77
2024-05-09T16:26:07.328Z,26.92
2024-05-09T16:28:33.842Z,9.05
2024-05-09T16:31:01.791Z,6.28
2024-05-09T16:33:28.350Z,5.30
2024-05-09T16:35:54.688Z,3.80
2024-05-09T16:38:21.004Z,3.55
2024-05-09T16:40:48.198Z,3.85
2024-05-09T16:43:14.565Z,3.78
2024-05-09T16:45:44.112Z,3.95
2024-05-09T16:48:11.455Z,3.80
2024-05-09T16:50:39.152Z,4.05
2024-05-09T16:53:06.943Z,3.97
2024-05-09T16:55:34.013Z,3.97
2024-05-09T16:58:01.060Z,4.07
2024-05-09T17:00:38.142Z,4.60
2024-05-09T17:03:10.159Z,4.25
2024-05-09T17:05:37.577Z,4.43
2024-05-09T17:08:04.374Z,4.57
2024-05-09T17:10:33.755Z,4.90
2024-05-09T17:13:01.699Z,4.50
2024-05-09T17:15:28.206Z,4.82
2024-05-09T17:17:54.601Z,4.47
2024-05-09T17:20:29.422Z,4.90
2024-05-09T17:23:00.284Z,4.60
2024-05-09T17:25:26.744Z,4.05
2024-05-09T17:27:53.145Z,4.55
2024-05-09T17:30:28.590Z,4.65
2024-05-09T17:32:59.573Z,4.35
2024-05-09T17:35:25.932Z,4.47
2024-05-09T17:37:52.472Z,4.63
2024-05-09T17:40:27.402Z,4.40
2024-05-09T17:42:58.990Z,5.13
2024-05-09T17:45:25.341Z,4.30
2024-05-09T17:47:51.863Z,4.28
2024-05-09T17:50:26.632Z,4.03
2024-05-09T17:52:57.339Z,3.88
2024-05-09T17:55:23.664Z,4.30
2024-05-09T17:57:50.045Z,5.13
2024-05-09T18:00:24.629Z,8.77
2024-05-09T18:03:00.331Z,16.70
2024-05-09T18:05:29.087Z,9.48
2024-05-09T18:07:57.241Z,8.30
2024-05-09T18:10:29.963Z,7.55
2024-05-09T18:13:02.177Z,5.93
2024-05-09T18:15:28.534Z,6.47
2024-05-09T18:17:54.993Z,6.10
2024-05-09T18:20:32.147Z,6.38
2024-05-09T18:23:06.881Z,5.70
2024-05-09T18:25:33.240Z,6.65
2024-05-09T18:27:59.721Z,6.25
2024-05-09T18:30:32.304Z,6.28
2024-05-09T18:33:01.640Z,7.03
2024-05-09T18:35:28.109Z,6.25
2024-05-09T18:37:55.095Z,5.93
2024-05-09T18:40:31.048Z,5.10
2024-05-09T18:43:01.381Z,5.97
2024-05-09T18:45:29.124Z,5.70
2024-05-09T18:47:56.592Z,6.05
2024-05-09T18:50:31.951Z,6.72
2024-05-09T18:53:02.945Z,6.68
2024-05-09T18:55:29.505Z,6.70
2024-05-09T18:57:56.005Z,6.30
2024-05-09T19:00:32.983Z,6.05
2024-05-09T19:03:05.685Z,6.65
2024-05-09T19:05:33.065Z,7.10
2024-05-09T19:07:59.709Z,6.75
2024-05-09T19:10:29.286Z,6.53
2024-05-09T19:13:00.366Z,6.28
2024-05-09T19:15:26.911Z,5.53
2024-05-09T19:17:53.362Z,5.22
2024-05-09T19:20:25.517Z,4.57
2024-05-09T19:22:58.136Z,5.15
2024-05-09T19:25:24.452Z,5.30
2024-05-09T19:27:51.136Z,5.05
2024-05-09T19:30:28.993Z,5.10
2024-05-09T19:33:02.556Z,4.43
2024-05-09T19:35:28.901Z,4.10
2024-05-09T19:37:55.656Z,4.78
2024-05-09T19:40:28.975Z,4.60
2024-05-09T19:42:58.475Z,4.75
2024-05-09T19:45:24.863Z,4.55
2024-05-09T19:47:51.495Z,5.32
2024-05-09T19:50:26.655Z,4.57
2024-05-09T19:52:59.258Z,4.53
2024-05-09T19:55:25.610Z,4.47
2024-05-09T19:57:51.984Z,4.20
2024-05-09T20:00:25.861Z,4.30
2024-05-09T20:02:55.757Z,4.38
2024-05-09T20:05:22.433Z,4.70
2024-05-09T20:07:48.869Z,4.25
2024-05-09T20:10:23.294Z,4.18
2024-05-09T20:12:52.780Z,4.82
2024-05-09T20:15:19.108Z,4.22
2024-05-09T20:17:45.512Z,4.30
2024-05-09T20:20:23.494Z,4.97
2024-05-09T20:25:21.124Z,4.10
2024-05-09T20:27:47.463Z,4.28
2024-05-09T20:30:20.918Z,4.38
2024-05-09T20:32:51.562Z,4.10
2024-05-09T20:35:17.934Z,4.05
2024-05-09T20:37:44.281Z,4.53
2024-05-09T20:40:18.184Z,4.45
2024-05-09T20:42:51.256Z,4.93
2024-05-09T20:45:17.537Z,4.93
2024-05-09T20:47:43.998Z,4.72
2024-05-09T20:50:20.228Z,4.82
2024-05-09T20:52:54.563Z,4.88
2024-05-09T20:55:21.831Z,4.82
2024-05-09T20:57:48.236Z,4.80
2024-05-09T21:00:18.856Z,5.40
2024-05-09T21:02:49.113Z,5.05
2024-05-09T21:05:15.914Z,4.90
2024-05-09T21:07:42.309Z,4.78
2024-05-09T21:10:15.543Z,5.25
2024-05-09T21:12:45.995Z,4.40
2024-05-09T21:15:12.349Z,4.65
2024-05-09T21:17:38.949Z,4.72
2024-05-09T21:20:11.416Z,4.60
2024-05-09T21:22:40.805Z,4.55
2024-05-09T21:25:07.262Z,4.97
2024-05-09T21:27:34.925Z,5.15
2024-05-09T21:30:01.284Z,5.05
2024-05-09T21:32:27.699Z,5.00
2024-05-09T21:34:54.122Z,5.20
2024-05-09T21:37:20.456Z,5.50
2024-05-09T21:39:46.864Z,5.28
2024-05-09T21:42:13.314Z,5.70
2024-05-09T21:44:39.624Z,5.63
2024-05-09T21:47:06.039Z,5.85
2024-05-09T21:49:32.964Z,5.55
2024-05-09T21:51:59.355Z,5.75
2024-05-09T21:54:25.684Z,5.88
2024-05-09T21:56:51.993Z,5.55
2024-05-09T21:59:18.279Z,5.60
2024-05-09T22:01:44.727Z,6.38
2024-05-09T22:04:11.278Z,6.25
2024-05-09T22:06:37.793Z,6.00
2024-05-09T22:09:05.352Z,6.07
2024-05-09T22:11:32.641Z,6.05
2024-05-09T22:13:59.054Z,5.60
2024-05-09T22:16:25.578Z,5.82
2024-05-09T22:18:52.198Z,5.70
2024-05-09T22:21:18.529Z,5.88
2024-05-09T22:23:44.820Z,6.22
2024-05-09T22:26:11.129Z,5.90
2024-05-09T22:28:37.575Z,6.22
2024-05-09T22:31:03.951Z,6.07
2024-05-09T22:33:30.566Z,6.22
2024-05-09T22:35:57.070Z,6.18
2024-05-09T22:38:23.362Z,5.93
2024-05-09T22:40:50.231Z,5.88
2024-05-09T22:43:24.660Z,5.80
2024-05-09T22:45:51.932Z,6.07
2024-05-09T22:48:19.058Z,5.80
2024-05-09T22:50:45.641Z,5.70
2024-05-09T22:53:11.923Z,5.15
2024-05-09T22:55:38.375Z,5.63
2024-05-09T22:58:04.896Z,5.57
2024-05-09T23:00:32.799Z,4.97
2024-05-09T23:03:03.018Z,5.00
2024-05-09T23:05:29.785Z,4.75
2024-05-09T23:07:56.233Z,5.47
2024-05-09T23:10:30.873Z,5.20
2024-05-09T23:13:01.618Z,5.53
2024-05-09T23:15:28.165Z,5.07
2024-05-09T23:17:55.320Z,5.00
2024-05-09T23:20:32.432Z,4.75
2024-05-09T23:23:03.248Z,5.05
2024-05-09T23:25:29.620Z,4.78
2024-05-09T23:27:55.980Z,4.90
2024-05-09T23:30:32.671Z,4.60
2024-05-09T23:33:04.430Z,4.90
2024-05-09T23:35:30.876Z,4.75
2024-05-09T23:37:57.173Z,4.93
2024-05-09T23:40:26.696Z,4.72
2024-05-09T23:42:56.796Z,4.35
2024-05-09T23:45:23.164Z,5.03
2024-05-09T23:47:49.797Z,4.22
2024-05-09T23:50:20.698Z,4.82
2024-05-09T23:52:52.583Z,4.80
2024-05-09T23:55:19.046Z,4.80
2024-05-09T23:57:45.574Z,4.72
